Time;durP1;ratioP1;P1;durP2;ratioP2;P2;SDS_P1;SDS_P2;PMS_P1;PMS_P2;Temp;Humidity;BMP_temperature;BMP_pressure;BME280_temperature;BME280_humidity;BME280_pressure;Samples;Min_cycle;Max_cycle;Signal;HPM_P1;HPM_P2
2022/04/01 00:00:29;;;;;;;;;3.00;3.00;;;;;0.25;100.00;-18461.59;5052596;28;12236;-73
2022/04/01 00:02:55;;;;;;;;;2.75;2.00;;;;;0.24;100.00;-18461.28;5052123;28;11503;-73
2022/04/01 00:05:22;;;;;;;;;4.00;4.00;;;;;0.30;100.00;-18463.25;5058712;28;11488;-73
2022/04/01 00:07:49;;;;;;;;;4.00;4.00;;;;;0.30;100.00;-18463.25;5067507;28;11567;-74
2022/04/01 00:10:15;;;;;;;;;4.75;3.00;;;;;0.28;100.00;-18462.66;5070594;28;11513;-74
2022/04/01 00:12:43;;;;;;;;;7.00;5.50;;;;;0.32;100.00;-18463.56;5069464;28;11647;-74
2022/04/01 00:15:12;;;;;;;;;3.50;3.50;;;;;0.35;100.00;-18464.47;5054117;28;11487;-74
2022/04/01 00:17:43;;;;;;;;;6.00;4.00;;;;;0.38;100.00;-18465.38;5066343;28;11535;-74
2022/04/01 00:20:13;;;;;;;;;5.50;4.25;;;;;0.44;100.00;-18467.34;5052335;28;11486;-74
2022/04/01 00:22:43;;;;;;;;;4.00;3.00;;;;;0.38;100.00;-18465.53;5063793;28;11551;-73
2022/04/01 00:25:10;;;;;;;;;9.00;6.00;;;;;0.36;100.00;-18464.91;5071131;28;11531;-74
2022/04/01 00:27:37;;;;;;;;;5.50;5.25;;;;;0.22;100.00;-18460.81;5070554;28;11595;-74
2022/04/01 00:30:04;;;;;;;;;6.50;4.75;;;;;0.26;100.00;-18462.03;5071157;28;11624;-74
2022/04/01 00:32:31;;;;;;;;;6.00;4.50;;;;;0.34;100.00;-18464.16;5070994;28;11501;-74
2022/04/01 00:34:58;;;;;;;;;4.00;4.00;;;;;0.35;100.00;-18464.63;5051903;28;11507;-72
2022/04/01 00:37:24;;;;;;;;;4.25;4.00;;;;;0.36;100.00;-18464.78;5070012;28;11542;-74
2022/04/01 00:39:51;;;;;;;;;7.00;5.00;;;;;0.38;100.00;-18465.38;5052585;28;11511;-72
2022/04/01 00:42:18;;;;;;;;;3.00;3.00;;;;;0.36;100.00;-18464.78;5059449;28;11563;-74
2022/04/01 00:44:44;;;;;;;;;1.00;1.00;;;;;0.31;100.00;-18463.41;5058948;28;11598;-74
2022/04/01 00:47:17;;;;;;;;;7.00;3.75;;;;;0.39;100.00;-18465.84;5035928;28;11589;-73
2022/04/01 00:49:45;;;;;;;;;3.50;3.50;;;;;0.40;100.00;-18466.13;5052753;28;11491;-73
2022/04/01 00:52:15;;;;;;;;;6.50;3.25;;;;;0.42;100.00;-18466.75;5065344;28;11617;-72
2022/04/01 00:54:42;;;;;;;;;2.25;2.25;;;;;0.47;100.00;-18468.09;5071640;28;12194;-73
2022/04/01 00:57:11;;;;;;;;;4.50;4.50;;;;;0.52;100.00;-18469.63;5071409;28;11554;-73
2022/04/01 00:59:37;;;;;;;;;3.50;3.50;;;;;0.49;100.00;-18468.84;5059900;28;12178;-72
2022/04/01 01:02:06;;;;;;;;;6.00;4.00;;;;;0.45;100.00;-18467.66;5054128;28;12222;-72
2022/04/01 01:04:33;;;;;;;;;6.75;6.00;;;;;0.41;100.00;-18466.44;5068592;28;11466;-73
2022/04/01 01:07:00;;;;;;;;;5.50;5.50;;;;;0.46;100.00;-18467.81;5065521;28;11495;-73
2022/04/01 01:09:27;;;;;;;;;4.25;3.00;;;;;0.49;100.00;-18468.84;5080401;28;11477;-71
2022/04/01 01:11:55;;;;;;;;;8.50;6.00;;;;;0.46;100.00;-18467.94;5078227;28;11591;-72
2022/04/01 01:14:34;;;;;;;;;5.00;5.00;;;;;0.48;100.00;-18468.56;5050401;28;12275;-72
2022/04/01 01:17:07;;;;;;;;;8.00;7.00;;;;;0.51;100.00;-18469.47;5051427;28;11519;-73
2022/04/01 01:19:34;;;;;;;;;5.00;5.00;;;;;0.51;100.00;-18469.47;5049999;28;11523;-72
2022/04/01 01:22:01;;;;;;;;;3.75;3.75;;;;;0.50;100.00;-18469.03;5063666;28;11486;-73
2022/04/01 01:24:31;;;;;;;;;7.00;6.50;;;;;0.54;100.00;-18470.22;5071539;28;11491;-73
2022/04/01 01:26:59;;;;;;;;;7.00;5.25;;;;;0.47;100.00;-18468.09;5068968;28;11465;-73
2022/04/01 01:29:28;;;;;;;;;4.00;4.00;;;;;0.51;100.00;-18469.31;5069880;28;11493;-72
2022/04/01 01:31:57;;;;;;;;;4.00;4.00;;;;;0.52;100.00;-18469.78;5070829;28;11464;-72
2022/04/01 01:34:25;;;;;;;;;5.25;3.50;;;;;0.49;100.00;-18468.72;5069123;28;11489;-74
2022/04/01 01:36:52;;;;;;;;;4.00;4.00;;;;;0.46;100.00;-18467.94;5067499;28;11495;-72
2022/04/01 01:39:20;;;;;;;;;7.00;4.50;;;;;0.47;100.00;-18468.09;5049643;28;11503;-73
2022/04/01 01:41:49;;;;;;;;;4.50;4.50;;;;;0.52;100.00;-18469.78;5065591;28;12234;-74
2022/04/01 01:44:21;;;;;;;;;8.50;5.00;;;;;0.54;100.00;-18470.22;5049545;28;11493;-73
2022/04/01 01:46:49;;;;;;;;;4.50;4.00;;;;;0.58;100.00;-18471.59;5076804;28;11527;-74
2022/04/01 01:49:15;;;;;;;;;5.50;3.75;;;;;0.67;100.00;-18474.00;5050896;28;11478;-73
2022/04/01 01:57:07;;;;;;;;;10.50;7.00;;;;;0.61;100.00;-18472.50;5069569;28;11495;-73
2022/04/01 01:59:35;;;;;;;;;9.50;6.50;;;;;0.55;100.00;-18470.69;5069370;28;11497;-73
2022/04/01 02:02:08;;;;;;;;;9.50;6.50;;;;;0.58;100.00;-18471.44;5069312;28;11504;-73
2022/04/01 02:04:35;;;;;;;;;4.25;4.25;;;;;0.60;100.00;-18472.03;5065438;28;11626;-73
2022/04/01 02:07:03;;;;;;;;;5.00;5.00;;;;;0.59;100.00;-18471.75;5069672;28;11500;-74
2022/04/01 02:09:30;;;;;;;;;7.00;6.50;;;;;0.61;100.00;-18472.50;5069628;28;11509;-73
2022/04/01 02:11:58;;;;;;;;;5.00;4.00;;;;;0.57;100.00;-18471.13;5069613;28;11549;-74
2022/04/01 02:14:25;;;;;;;;;10.00;5.50;;;;;0.58;100.00;-18471.59;5069673;28;11501;-73
2022/04/01 02:16:53;;;;;;;;;7.00;6.25;;;;;0.48;100.00;-18468.56;5070948;28;11575;-73
2022/04/01 02:19:23;;;;;;;;;5.00;4.00;;;;;0.53;100.00;-18469.94;5071189;28;11463;-73
2022/04/01 02:21:51;;;;;;;;;6.00;5.50;;;;;0.65;100.00;-18473.56;5072123;28;12272;-74
2022/04/01 02:24:21;;;;;;;;;5.00;5.00;;;;;0.70;100.00;-18474.94;5076611;28;11501;-74
2022/04/01 02:26:48;;;;;;;;;7.00;5.50;;;;;0.66;100.00;-18473.88;5073172;28;11490;-74
2022/04/01 02:29:20;;;;;;;;;7.75;4.25;;;;;0.72;100.00;-18475.53;5073957;28;11471;-74
2022/04/01 02:32:10;;;;;;;;;8.00;5.00;;;;;0.68;100.00;-18474.31;5054843;28;11482;-73
2022/04/01 02:35:07;;;;;;;;;7.50;6.25;;;;;0.64;100.00;-18473.25;5068934;28;11488;-73
2022/04/01 02:37:39;;;;;;;;;7.00;7.00;;;;;0.56;100.00;-18470.84;5068877;28;11484;-74
2022/04/01 02:40:08;;;;;;;;;11.00;6.75;;;;;0.63;100.00;-18472.97;5069440;28;11486;-74
2022/04/01 02:42:36;;;;;;;;;6.25;6.25;;;;;0.62;100.00;-18472.66;5055164;28;11582;-72
2022/04/01 02:45:03;;;;;;;;;4.00;4.00;;;;;0.64;100.00;-18473.09;5075857;28;11631;-72
2022/04/01 02:47:30;;;;;;;;;7.00;6.00;;;;;0.72;100.00;-18475.69;5076171;28;11539;-71
2022/04/01 02:49:57;;;;;;;;;10.00;8.00;;;;;0.73;100.00;-18475.97;5076788;28;11487;-72
2022/04/01 02:52:24;;;;;;;;;6.50;4.00;;;;;0.72;100.00;-18475.69;5069400;28;11495;-73
2022/04/01 02:54:52;;;;;;;;;7.50;5.00;;;;;0.79;100.00;-18477.81;5074958;28;11489;-73
2022/04/01 02:57:20;;;;;;;;;9.50;9.50;;;;;0.77;100.00;-18477.19;5070090;28;11649;-73
2022/04/01 02:59:48;;;;;;;;;7.00;7.00;;;;;0.78;100.00;-18477.34;5053100;28;11502;-73
2022/04/01 03:02:15;;;;;;;;;6.25;6.25;;;;;0.81;100.00;-18478.41;5067189;28;11621;-74
2022/04/01 03:04:42;;;;;;;;;4.00;4.00;;;;;0.82;100.00;-18478.56;5072353;28;11561;-72
2022/04/01 03:07:09;;;;;;;;;10.50;7.00;;;;;0.78;100.00;-18477.50;5055580;28;11541;-73
2022/04/01 03:09:36;;;;;;;;;5.00;5.00;;;;;0.83;100.00;-18479.03;5072242;28;11632;-73
2022/04/01 03:12:08;;;;;;;;;8.50;6.50;;;;;0.80;100.00;-18478.09;5068533;28;11569;-73
2022/04/01 03:15:02;;;;;;;;;7.50;7.50;;;;;0.78;100.00;-18477.50;5053857;28;12234;-71
2022/04/01 03:17:48;;;;;;;;;6.00;6.00;;;;;0.73;100.00;-18475.97;5063288;28;11490;-71
2022/04/01 03:20:23;;;;;;;;;2.50;2.50;;;;;0.70;100.00;-18474.94;5065307;28;11491;-73
2022/04/01 03:22:51;;;;;;;;;8.75;6.50;;;;;0.72;100.00;-18475.53;5071170;28;11500;-73
2022/04/01 03:25:23;;;;;;;;;6.25;5.00;;;;;0.76;100.00;-18476.91;5071940;28;11506;-72
2022/04/01 03:28:13;;;;;;;;;10.00;7.00;;;;;0.69;100.00;-18474.63;5060774;28;11511;-74
2022/04/01 03:30:41;;;;;;;;;5.00;5.00;;;;;0.70;100.00;-18475.06;5067065;28;11513;-72
2022/04/01 03:33:08;;;;;;;;;7.00;7.00;;;;;0.64;100.00;-18473.25;5054953;28;11614;-74
2022/04/01 03:35:35;;;;;;;;;4.00;4.00;;;;;0.65;100.00;-18473.41;5071972;28;11478;-75
2022/04/01 03:38:04;;;;;;;;;4.75;4.75;;;;;0.61;100.00;-18472.50;5071761;28;11475;-73
2022/04/01 03:40:31;;;;;;;;;5.50;4.75;;;;;0.63;100.00;-18472.81;5071683;28;11478;-74
2022/04/01 03:42:58;;;;;;;;;2.00;2.00;;;;;0.59;100.00;-18471.75;5071313;28;11524;-73
2022/04/01 03:45:25;;;;;;;;;6.50;6.50;;;;;0.63;100.00;-18472.81;5074144;28;11500;-74
2022/04/01 03:48:37;;;;;;;;;5.00;5.00;;;;;0.63;99.32;-18472.97;5065644;28;11533;-74
2022/04/01 03:51:04;;;;;;;;;4.00;4.00;;;;;0.68;98.44;-18474.47;5043583;28;11523;-74
2022/04/01 03:53:40;;;;;;;;;3.50;3.50;;;;;0.77;98.39;-18477.19;5051399;28;11493;-74
2022/04/01 03:56:13;;;;;;;;;3.00;3.00;;;;;0.80;97.75;-18478.09;5052313;28;11504;-74
2022/04/01 03:59:09;;;;;;;;;7.00;4.25;;;;;0.84;97.12;-18479.31;5068097;28;11607;-74
2022/04/01 04:01:55;;;;;;;;;4.00;4.00;;;;;0.78;96.78;-18477.34;5052308;28;12215;-74
2022/04/01 04:04:21;;;;;;;;;4.00;3.00;;;;;0.80;96.92;-18478.09;5051227;28;11731;-74
2022/04/01 04:06:49;;;;;;;;;3.00;3.00;;;;;0.84;95.74;-18479.31;5034391;28;11479;-71
2022/04/01 04:09:16;;;;;;;;;2.00;1.00;;;;;0.87;94.97;-18480.06;5051360;28;11499;-75
2022/04/01 04:11:45;;;;;;;;;4.00;4.00;;;;;0.92;94.44;-18481.59;5053489;28;11589;-73
2022/04/01 04:14:20;;;;;;;;;4.50;3.00;;;;;0.95;93.67;-18482.34;5071296;28;11499;-72
2022/04/01 04:16:47;;;;;;;;;3.50;3.50;;;;;0.99;92.03;-18483.56;5070978;28;11565;-72
2022/04/01 04:19:27;;;;;;;;;4.00;4.00;;;;;1.10;91.58;-18487.03;5066129;28;11514;-73
2022/04/01 04:22:14;;;;;;;;;2.25;1.00;;;;;1.13;90.76;-18487.97;5067388;28;11521;-73
2022/04/01 04:24:57;;;;;;;;;8.00;4.00;;;;;1.20;90.49;-18489.94;5072591;23;11471;-71
2022/04/01 04:27:29;;;;;;;;;2.50;2.50;;;;;1.22;89.08;-18490.53;5050627;28;11498;-72
2022/04/01 04:30:08;;;;;;;;;4.50;3.25;;;;;1.22;87.91;-18490.69;5043749;28;11610;-71
2022/04/01 04:32:59;;;;;;;;;5.75;4.00;;;;;1.19;86.89;-18489.63;5049779;28;11490;-72
2022/04/01 04:35:28;;;;;;;;;2.00;2.00;;;;;1.22;88.04;-18490.69;5071610;28;11506;-71
2022/04/01 04:37:57;;;;;;;;;3.75;3.75;;;;;1.25;88.65;-18491.28;5068492;28;11577;-71
2022/04/01 04:40:25;;;;;;;;;4.00;3.00;;;;;1.21;87.63;-18490.38;5050794;28;11501;-71
2022/04/01 04:43:04;;;;;;;;;2.00;2.00;;;;;1.19;86.75;-18489.63;5068574;28;11584;-72
2022/04/01 04:45:32;;;;;;;;;0.50;0.00;;;;;1.22;86.82;-18490.53;5054202;28;11464;-71
2022/04/01 04:48:01;;;;;;;;;1.00;1.00;;;;;1.27;86.53;-18491.91;5052476;28;11535;-71
2022/04/01 04:50:28;;;;;;;;;1.50;1.50;;;;;1.26;86.64;-18491.59;5068921;28;11582;-71
2022/04/01 04:52:56;;;;;;;;;0.25;0.25;;;;;1.21;86.54;-18490.22;5057519;28;11496;-72
2022/04/01 04:55:24;;;;;;;;;5.50;1.00;;;;;1.21;85.55;-18490.22;5054480;28;11498;-71
2022/04/01 04:57:56;;;;;;;;;1.75;1.75;;;;;1.24;86.11;-18491.13;5068183;28;11496;-71
2022/04/01 05:00:23;;;;;;;;;4.00;4.00;;;;;1.18;84.57;-18489.31;5067461;28;11578;-71
2022/04/01 05:03:26;;;;;;;;;1.00;1.00;;;;;1.21;84.40;-18490.38;5067029;28;11638;-71
2022/04/01 05:05:56;;;;;;;;;1.00;1.00;;;;;1.29;83.08;-18492.50;5051680;28;11482;-72
2022/04/01 05:08:37;;;;;;;;;3.00;3.00;;;;;1.34;82.15;-18494.16;5053279;28;11489;-72
2022/04/01 05:11:34;;;;;;;;;3.00;3.00;;;;;1.37;80.10;-18494.94;5080885;28;11497;-71
2022/04/01 05:14:24;;;;;;;;;2.00;2.00;;;;;1.40;80.24;-18495.84;5035231;28;11528;-71
2022/04/01 05:17:00;;;;;;;;;3.00;3.00;;;;;1.44;79.43;-18497.03;5049656;28;11522;-71
2022/04/01 05:19:28;;;;;;;;;2.00;2.00;;;;;1.49;78.98;-18498.56;5063023;28;11555;-71
2022/04/01 05:22:04;;;;;;;;;2.00;2.00;;;;;1.51;79.00;-18499.31;5067586;28;12225;-72
2022/04/01 05:24:48;;;;;;;;;4.00;1.25;;;;;1.49;78.79;-18498.56;5069336;28;11486;-71
2022/04/01 05:27:28;;;;;;;;;3.50;0.75;;;;;1.50;79.57;-18498.88;5071031;28;11627;-72
2022/04/01 05:30:21;;;;;;;;;2.25;2.25;;;;;1.56;79.68;-18500.53;5068639;28;12185;-72
2022/04/01 05:33:15;;;;;;;;;3.25;3.25;;;;;1.61;80.41;-18502.03;5070106;28;11477;-74
2022/04/01 05:35:43;;;;;;;;;3.00;2.00;;;;;1.58;78.62;-18501.28;5069832;28;11506;-71
2022/04/01 05:38:11;;;;;;;;;3.25;2.25;;;;;1.62;79.62;-18502.34;5070364;28;11494;-71
2022/04/01 05:40:39;;;;;;;;;5.00;2.50;;;;;1.59;79.61;-18501.59;5070082;28;11599;-70
2022/04/01 05:43:10;;;;;;;;;4.75;2.50;;;;;1.59;78.60;-18501.59;5052770;28;11466;-71
2022/04/01 05:45:56;;;;;;;;;3.25;1.00;;;;;1.62;79.15;-18502.50;5079068;28;11485;-70
2022/04/01 05:48:25;;;;;;;;;4.00;1.25;;;;;1.59;76.25;-18501.44;5069738;28;11464;-72
2022/04/01 05:50:53;;;;;;;;;3.00;3.00;;;;;1.61;76.98;-18502.19;5070948;28;11474;-72
2022/04/01 05:53:23;;;;;;;;;3.00;2.00;;;;;1.67;76.91;-18504.00;5069769;28;11488;-70
2022/04/01 05:55:55;;;;;;;;;3.50;2.50;;;;;1.66;75.00;-18503.56;5067917;28;12240;-71
2022/04/01 05:58:22;;;;;;;;;1.25;1.25;;;;;1.69;74.82;-18504.63;5069145;28;11513;-71
2022/04/01 06:01:25;;;;;;;;;1.00;1.00;;;;;1.76;75.16;-18506.59;5069531;28;11551;-72
2022/04/01 06:04:02;;;;;;;;;0.75;0.75;;;;;1.79;75.80;-18507.66;5069240;28;11497;-71
2022/04/01 06:06:42;;;;;;;;;4.00;1.00;;;;;1.80;75.15;-18507.81;5068914;28;11493;-71
2022/04/01 06:09:14;;;;;;;;;1.75;1.00;;;;;1.82;75.05;-18508.56;5050260;28;11633;-70
2022/04/01 06:12:32;;;;;;;;;1.00;0.00;;;;;1.86;75.70;-18509.63;5031850;28;11503;-71
2022/04/01 06:15:07;;;;;;;;;2.25;2.25;;;;;1.89;76.82;-18510.53;5063776;28;11521;-70
2022/04/01 06:18:22;;;;;;;;;1.00;1.00;;;;;1.84;75.13;-18509.00;5069194;28;11484;-71
2022/04/01 06:20:53;;;;;;;;;1.75;1.00;;;;;1.86;73.16;-18509.63;5067468;28;11473;-72
2022/04/01 06:23:51;;;;;;;;;0.00;0.00;;;;;1.92;71.90;-18511.44;5069510;28;11472;-71
2022/04/01 06:26:18;;;;;;;;;0.00;0.00;;;;;1.96;70.95;-18512.66;5069253;28;11502;-71
2022/04/01 06:29:00;;;;;;;;;1.75;1.50;;;;;2.01;69.57;-18514.16;5070527;28;11511;-71
2022/04/01 06:31:31;;;;;;;;;1.00;1.00;;;;;2.06;70.07;-18515.69;5076598;28;11583;-70
2022/04/01 06:34:08;;;;;;;;;0.00;0.00;;;;;2.11;67.79;-18517.03;5073503;28;11477;-70
2022/04/01 06:36:49;;;;;;;;;1.00;1.00;;;;;2.15;69.26;-18518.41;5074412;28;11665;-71
2022/04/01 06:39:39;;;;;;;;;0.00;0.00;;;;;2.22;66.87;-18520.22;5069664;28;11468;-71
2022/04/01 06:42:13;;;;;;;;;3.25;1.50;;;;;2.27;67.20;-18521.88;5072023;28;11474;-72
2022/04/01 06:44:59;;;;;;;;;0.00;0.00;;;;;2.28;66.88;-18522.19;5066394;28;11468;-72
2022/04/01 06:48:05;;;;;;;;;1.00;0.00;;;;;2.38;66.83;-18525.22;5050311;28;12245;-71
2022/04/01 06:50:49;;;;;;;;;1.00;1.00;;;;;2.38;67.17;-18525.06;5030109;28;12312;-72
2022/04/01 06:53:37;;;;;;;;;1.00;1.00;;;;;2.42;66.13;-18526.28;5047107;28;11472;-72
2022/04/01 06:56:26;;;;;;;;;1.50;1.00;;;;;2.42;67.21;-18526.28;5073448;28;11518;-72
2022/04/01 06:58:53;;;;;;;;;1.25;1.25;;;;;2.47;64.49;-18527.78;5045444;28;11495;-70
2022/04/01 07:01:19;;;;;;;;;0.00;0.00;;;;;2.50;63.87;-18528.72;5054231;28;11462;-72
2022/04/01 07:03:46;;;;;;;;;1.00;1.00;;;;;2.56;64.56;-18530.53;5052794;28;11498;-72
2022/04/01 07:06:13;;;;;;;;;0.00;0.00;;;;;2.61;64.10;-18531.88;5068828;28;11467;-71
2022/04/01 07:08:43;;;;;;;;;0.00;0.00;;;;;2.63;64.81;-18532.63;5072527;28;11472;-71
2022/04/01 07:11:10;;;;;;;;;0.00;0.00;;;;;2.70;64.68;-18534.75;5061823;28;11534;-72
2022/04/01 07:13:37;;;;;;;;;0.25;0.25;;;;;2.95;65.74;-18542.19;5063879;28;13805;-73
2022/04/01 07:16:06;;;;;;;;;0.00;0.00;;;;;3.16;65.10;-18548.38;5066018;28;11444;-71
2022/04/01 07:18:33;;;;;;;;;3.50;1.00;;;;;3.47;64.07;-18557.47;5073714;28;11445;-72
2022/04/01 07:21:00;;;;;;;;;0.00;0.00;;;;;3.51;61.87;-18558.69;5065953;28;11435;-72
2022/04/01 07:23:28;;;;;;;;;0.00;0.00;;;;;3.88;61.09;-18569.88;5054821;28;11429;-73
2022/04/01 07:25:54;;;;;;;;;0.75;0.75;;;;;4.03;60.97;-18574.13;5071899;28;11533;-73
2022/04/01 07:28:21;;;;;;;;;1.00;1.00;;;;;3.85;60.74;-18568.81;5064208;28;11559;-73
2022/04/01 07:30:47;;;;;;;;;0.00;0.00;;;;;4.08;60.86;-18575.63;5053160;28;11425;-71
2022/04/01 07:33:14;;;;;;;;;0.00;0.00;;;;;3.87;60.75;-18569.44;5067665;28;11414;-70
2022/04/01 07:35:44;;;;;;;;;0.00;0.00;;;;;3.71;61.09;-18564.88;5073114;28;11404;-70
2022/04/01 07:38:11;;;;;;;;;0.00;0.00;;;;;3.85;61.90;-18568.97;5071469;28;11443;-70
2022/04/01 07:40:37;;;;;;;;;0.50;0.50;;;;;3.76;59.88;-18566.25;5072071;28;11390;-70
2022/04/01 07:43:04;;;;;;;;;0.00;0.00;;;;;3.84;59.42;-18568.53;5043447;28;11436;-69
2022/04/01 07:45:33;;;;;;;;;0.00;0.00;;;;;3.79;59.17;-18567.16;5073005;28;11440;-69
2022/04/01 07:48:00;;;;;;;;;1.00;0.00;;;;;3.86;58.52;-18569.13;5060047;28;11479;-70
2022/04/01 07:50:27;;;;;;;;;1.00;0.00;;;;;4.01;58.42;-18573.66;5064781;28;11412;-69
2022/04/01 07:52:54;;;;;;;;;0.00;0.00;;;;;4.06;58.61;-18575.03;5081391;28;11412;-71
2022/04/01 07:55:20;;;;;;;;;1.00;1.00;;;;;4.20;58.82;-18579.25;5068563;28;12138;-70
2022/04/01 07:57:49;;;;;;;;;0.00;0.00;;;;;4.05;59.76;-18574.88;5063190;28;11424;-70
2022/04/01 08:00:36;;;;;;;;;0.00;0.00;;;;;4.04;59.23;-18574.56;5069427;28;11412;-70
2022/04/01 08:03:04;;;;;;;;;1.00;0.75;;;;;4.14;59.23;-18577.44;5071056;28;11447;-69
2022/04/01 08:05:30;;;;;;;;;1.00;1.00;;;;;4.36;60.08;-18584.09;5072549;28;11410;-70
2022/04/01 08:07:57;;;;;;;;;0.00;0.00;;;;;4.23;59.80;-18580.19;5071369;28;11407;-70
2022/04/01 08:10:23;;;;;;;;;0.00;0.00;;;;;4.21;59.66;-18579.72;5071700;28;11431;-70
2022/04/01 08:12:50;;;;;;;;;0.00;0.00;;;;;4.17;58.75;-18578.34;5071261;28;11396;-70
2022/04/01 08:15:18;;;;;;;;;0.00;0.00;;;;;4.30;57.28;-18582.28;5068830;28;11420;-69
2022/04/01 08:17:44;;;;;;;;;0.25;0.25;;;;;3.93;58.57;-18571.41;5066497;28;11474;-69
2022/04/01 08:20:12;;;;;;;;;0.00;0.00;;;;;4.08;60.08;-18575.63;5069908;28;11431;-70
2022/04/01 08:22:40;;;;;;;;;0.00;0.00;;;;;3.78;58.64;-18566.84;5069393;28;11399;-69
2022/04/01 08:25:07;;;;;;;;;0.25;0.25;;;;;3.84;59.95;-18568.66;5055391;28;11554;-69
2022/04/01 08:27:34;;;;;;;;;0.00;0.00;;;;;3.79;60.21;-18567.00;5052246;28;11527;-70
2022/04/01 08:30:00;;;;;;;;;1.75;0.00;;;;;3.86;61.96;-18569.13;5055065;28;12525;-69
2022/04/01 08:32:29;;;;;;;;;1.00;0.00;;;;;3.96;62.79;-18572.31;5067549;28;11408;-69
2022/04/01 08:34:57;;;;;;;;;0.00;0.00;;;;;3.65;61.34;-18563.06;5050438;28;11439;-70
2022/04/01 08:37:24;;;;;;;;;0.00;0.00;;;;;3.77;61.63;-18566.41;5070658;28;11437;-70
2022/04/01 08:39:53;;;;;;;;;0.75;0.75;;;;;3.79;61.55;-18567.16;5069546;28;11419;-70
2022/04/01 08:42:19;;;;;;;;;0.00;0.00;;;;;3.82;60.33;-18567.91;5051088;28;11419;-69
2022/04/01 08:44:50;;;;;;;;;1.00;0.00;;;;;3.66;59.20;-18563.38;5070705;28;11395;-70
2022/04/01 08:47:18;;;;;;;;;0.00;0.00;;;;;3.62;59.86;-18562.00;5070412;28;11408;-70
2022/04/01 08:49:45;;;;;;;;;0.00;0.00;;;;;3.53;61.93;-18559.44;5063484;28;11434;-71
2022/04/01 08:52:11;;;;;;;;;0.00;0.00;;;;;3.43;60.43;-18556.41;5063534;28;11395;-69
2022/04/01 08:54:38;;;;;;;;;0.00;0.00;;;;;3.54;60.35;-18559.75;5070233;28;12132;-70
2022/04/01 08:57:08;;;;;;;;;0.00;0.00;;;;;3.57;59.79;-18560.66;5068819;28;11598;-70
2022/04/01 08:59:35;;;;;;;;;0.00;0.00;;;;;3.84;59.80;-18568.53;5061977;28;11417;-70
2022/04/01 09:02:03;;;;;;;;;0.00;0.00;;;;;3.75;59.70;-18565.78;5070208;28;11408;-70
2022/04/01 09:04:30;;;;;;;;;0.00;0.00;;;;;3.80;58.91;-18567.31;5071294;28;11526;-71
2022/04/01 09:07:09;;;;;;;;;0.25;0.00;;;;;4.01;60.36;-18573.66;5068821;28;11533;-70
2022/04/01 09:09:35;;;;;;;;;0.00;0.00;;;;;4.24;61.51;-18580.47;5049048;28;12163;-70
2022/04/01 09:12:16;;;;;;;;;0.00;0.00;;;;;4.02;60.59;-18573.97;5069170;28;11447;-70
2022/04/01 09:14:51;;;;;;;;;0.00;0.00;;;;;3.87;59.54;-18569.44;5069807;28;11554;-69
2022/04/01 09:17:18;;;;;;;;;0.00;0.00;;;;;4.10;60.64;-18576.25;5071009;28;11587;-70
2022/04/01 09:19:48;;;;;;;;;0.50;0.50;;;;;4.11;61.37;-18576.69;5050955;28;11440;-71
2022/04/01 09:22:15;;;;;;;;;0.00;0.00;;;;;3.93;61.23;-18571.41;5063570;28;12090;-70
2022/04/01 09:25:09;;;;;;;;;1.00;0.00;;;;;3.89;60.95;-18570.03;5062764;28;11443;-69
2022/04/01 09:27:52;;;;;;;;;0.00;0.00;;;;;3.95;61.40;-18572.00;5064603;28;11413;-70
2022/04/01 09:30:27;;;;;;;;;1.00;1.00;;;;;4.12;61.55;-18577.00;5071972;28;11398;-69
2022/04/01 09:32:55;;;;;;;;;1.00;1.00;;;;;4.33;59.13;-18583.34;5071802;28;11431;-69
2022/04/01 09:35:30;;;;;;;;;0.00;0.00;;;;;4.60;60.32;-18591.22;5065509;28;11498;-72
2022/04/01 09:38:04;;;;;;;;;2.00;0.00;;;;;4.40;60.59;-18585.16;5061009;28;11461;-70
2022/04/01 09:40:35;;;;;;;;;0.00;0.00;;;;;4.13;60.68;-18577.16;5053733;28;12221;-71
2022/04/01 09:43:07;;;;;;;;;0.00;0.00;;;;;4.33;60.26;-18583.19;5061205;28;11452;-70
2022/04/01 09:45:38;;;;;;;;;1.25;1.00;;;;;4.17;59.81;-18578.50;5070347;28;11458;-70
2022/04/01 09:48:13;;;;;;;;;0.75;0.00;;;;;4.29;60.67;-18582.00;5063287;28;12189;-70
2022/04/01 09:50:42;;;;;;;;;0.00;0.00;;;;;4.77;62.10;-18596.38;5069252;28;11531;-70
2022/04/01 09:53:11;;;;;;;;;0.00;0.00;;;;;4.89;59.38;-18600.00;5065228;28;11418;-70
2022/04/01 09:55:39;;;;;;;;;0.50;0.50;;;;;5.03;59.74;-18604.06;5050434;28;11425;-70
2022/04/01 09:58:07;;;;;;;;;1.25;1.00;;;;;4.82;58.60;-18597.88;5048943;28;11462;-69
2022/04/01 10:00:36;;;;;;;;;0.50;0.50;;;;;4.88;59.63;-18599.69;5064028;28;11551;-71
2022/04/01 10:03:05;;;;;;;;;0.00;0.00;;;;;4.67;59.33;-18593.19;5076698;28;11477;-68
2022/04/01 10:05:31;;;;;;;;;0.00;0.00;;;;;4.88;59.38;-18599.69;5051373;28;11516;-70
2022/04/01 10:08:02;;;;;;;;;0.00;0.00;;;;;4.89;59.14;-18600.00;5069932;28;11389;-70
2022/04/01 10:10:30;;;;;;;;;0.25;0.25;;;;;5.42;58.91;-18615.72;5060332;28;11422;-70
2022/04/01 10:13:02;;;;;;;;;0.00;0.00;;;;;5.26;58.50;-18610.88;5065032;28;11395;-68
2022/04/01 10:15:32;;;;;;;;;0.00;0.00;;;;;4.69;58.52;-18593.94;5070501;28;11410;-69
2022/04/01 10:18:01;;;;;;;;;0.00;0.00;;;;;4.62;60.29;-18591.97;5066465;28;11456;-69
2022/04/01 10:20:33;;;;;;;;;0.75;0.00;;;;;4.08;61.33;-18575.63;5067560;28;11440;-69
2022/04/01 10:23:03;;;;;;;;;0.00;0.00;;;;;4.44;61.62;-18586.38;5068855;28;11407;-70
2022/04/01 10:25:42;;;;;;;;;0.00;0.00;;;;;5.17;59.77;-18608.16;5085416;28;11422;-70
2022/04/01 10:28:09;;;;;;;;;0.50;0.50;;;;;5.03;60.04;-18604.06;5070105;28;11488;-69
2022/04/01 10:30:36;;;;;;;;;0.00;0.00;;;;;5.38;59.30;-18614.50;5068906;28;11425;-71
2022/04/01 10:33:07;;;;;;;;;1.75;0.50;;;;;5.61;58.71;-18621.16;5068288;28;11562;-70
2022/04/01 10:35:36;;;;;;;;;1.75;1.00;;;;;5.40;59.42;-18615.13;5068915;28;11386;-69
2022/04/01 10:38:05;;;;;;;;;3.00;0.00;;;;;5.23;61.69;-18609.97;5069831;28;11567;-70
2022/04/01 10:40:34;;;;;;;;;5.00;2.50;;;;;5.65;59.54;-18622.38;5059692;28;11467;-70
2022/04/01 10:43:19;;;;;;;;;0.75;0.75;;;;;5.10;59.92;-18606.03;5032050;28;11437;-69
2022/04/01 10:46:07;;;;;;;;;3.25;3.25;;;;;5.21;59.82;-18609.53;5050227;28;11497;-70
2022/04/01 10:51:36;;;;;;;;;1.00;1.00;;;;;5.28;59.06;-18611.34;5067718;28;11502;-69
2022/04/01 10:54:12;;;;;;;;;1.00;1.00;;;;;4.86;60.33;-18598.94;5066886;28;11386;-70
2022/04/01 10:57:07;;;;;;;;;1.25;0.75;;;;;5.44;59.24;-18616.31;5069538;28;11499;-71
2022/04/01 10:59:39;;;;;;;;;2.00;2.00;;;;;5.04;60.76;-18604.22;5067651;28;11506;-69
2022/04/01 11:02:09;;;;;;;;;4.00;2.25;;;;;4.51;61.79;-18588.66;5068894;28;11387;-69
2022/04/01 11:04:44;;;;;;;;;4.00;2.50;;;;;4.81;62.33;-18597.41;5069941;28;11507;-70
2022/04/01 11:07:12;;;;;;;;;2.50;2.00;;;;;4.86;61.58;-18599.09;5068791;28;11541;-71
2022/04/01 11:09:38;;;;;;;;;1.00;1.00;;;;;4.88;63.05;-18599.69;5067115;28;11443;-70
2022/04/01 11:12:21;;;;;;;;;4.00;4.00;;;;;4.47;65.38;-18587.28;5068763;28;11441;-70
2022/04/01 11:15:12;;;;;;;;;1.00;1.00;;;;;4.19;65.21;-18579.09;5069991;28;11409;-71
2022/04/01 11:17:46;;;;;;;;;1.50;1.50;;;;;4.31;66.51;-18582.75;5073473;28;11412;-70
2022/04/01 11:20:16;;;;;;;;;4.00;4.00;;;;;4.24;65.75;-18580.47;5071080;28;11411;-70
2022/04/01 11:22:52;;;;;;;;;2.50;2.50;;;;;3.99;67.73;-18573.22;5071638;28;11452;-70
2022/04/01 11:25:21;;;;;;;;;2.00;2.00;;;;;3.91;67.65;-18570.78;5072838;28;11511;-70
2022/04/01 11:27:50;;;;;;;;;5.00;1.75;;;;;3.61;68.91;-18561.84;5073249;28;11490;-70
2022/04/01 11:30:24;;;;;;;;;4.00;2.50;;;;;3.79;69.52;-18567.16;5069129;28;12301;-70
2022/04/01 11:32:58;;;;;;;;;3.00;3.00;;;;;4.07;67.72;-18575.34;5082640;28;11450;-70
2022/04/01 11:35:35;;;;;;;;;2.00;2.00;;;;;4.67;66.63;-18593.19;5071563;28;11432;-69
2022/04/01 11:38:02;;;;;;;;;2.50;2.50;;;;;5.00;66.45;-18603.03;5073703;28;11427;-71
2022/04/01 11:40:31;;;;;;;;;4.00;4.00;;;;;5.17;63.84;-18608.31;5074862;28;12107;-70
2022/04/01 11:43:02;;;;;;;;;4.75;3.50;;;;;4.91;65.13;-18600.44;5069321;28;11431;-70
2022/04/01 11:45:36;;;;;;;;;4.00;4.00;;;;;4.70;63.94;-18594.25;5072625;28;11440;-70
2022/04/01 11:48:19;;;;;;;;;5.25;4.50;;;;;4.10;63.36;-18576.38;5073327;28;12130;-70
2022/04/01 11:50:52;;;;;;;;;6.75;3.75;;;;;3.95;63.46;-18572.00;5066777;28;11432;-69
2022/04/01 11:53:29;;;;;;;;;4.25;4.25;;;;;4.09;63.54;-18575.94;5070413;28;11496;-69
2022/04/01 11:55:57;;;;;;;;;2.00;1.00;;;;;4.32;62.08;-18583.03;5051439;28;11456;-70
2022/04/01 11:58:25;;;;;;;;;2.00;2.00;;;;;4.38;63.35;-18584.56;5051240;28;12236;-70
2022/04/01 12:00:52;;;;;;;;;4.00;3.50;;;;;5.22;59.85;-18609.69;5063226;28;11521;-70
2022/04/01 12:03:19;;;;;;;;;1.50;1.50;;;;;4.89;59.71;-18599.84;5067618;28;11456;-69